sensor_id;sensor_type;location;lat;lon;timestamp;temperature;humidity
3954;DHT22;1991;48.682;9.030;2022-09-09T00:02:23;15.30;99.90
3954;DHT22;1991;48.682;9.030;2022-09-09T00:05:04;15.20;99.90
3954;DHT22;1991;48.682;9.030;2022-09-09T00:07:51;15.20;99.90
3954;DHT22;1991;48.682;9.030;2022-09-09T00:10:30;15.20;99.90
3954;DHT22;1991;48.682;9.030;2022-09-09T00:18:58;15.30;99.90
3954;DHT22;1991;48.682;9.030;2022-09-09T00:21:36;15.40;99.90
3954;DHT22;1991;48.682;9.030;2022-09-09T00:27:32;15.40;99.90
3954;DHT22;1991;48.682;9.030;2022-09-09T00:32:41;15.40;99.90
3954;DHT22;1991;48.682;9.030;2022-09-09T00:37:41;15.40;99.90
3954;DHT22;1991;48.682;9.030;2022-09-09T00:40:30;15.50;99.90
3954;DHT22;1991;48.682;9.030;2022-09-09T00:48:13;15.60;99.90
3954;DHT22;1991;48.682;9.030;2022-09-09T00:58:28;15.60;99.90
3954;DHT22;1991;48.682;9.030;2022-09-09T01:01:04;15.60;99.90
3954;DHT22;1991;48.682;9.030;2022-09-09T01:03:53;15.60;99.90
3954;DHT22;1991;48.682;9.030;2022-09-09T01:08:52;15.50;99.90
3954;DHT22;1991;48.682;9.030;2022-09-09T01:16:58;15.50;99.90
3954;DHT22;1991;48.682;9.030;2022-09-09T01:22:11;15.30;99.90
3954;DHT22;1991;48.682;9.030;2022-09-09T01:27:32;15.40;99.90
3954;DHT22;1991;48.682;9.030;2022-09-09T01:29:59;15.40;99.90
3954;DHT22;1991;48.682;9.030;2022-09-09T01:32:47;15.40;99.90
3954;DHT22;1991;48.682;9.030;2022-09-09T01:38:14;15.40;99.90
3954;DHT22;1991;48.682;9.030;2022-09-09T01:40:40;15.40;99.90
3954;DHT22;1991;48.682;9.030;2022-09-09T01:43:06;15.40;99.90
3954;DHT22;1991;48.682;9.030;2022-09-09T01:45:33;15.40;99.90
3954;DHT22;1991;48.682;9.030;2022-09-09T01:47:59;15.40;99.90
3954;DHT22;1991;48.682;9.030;2022-09-09T01:50:25;15.40;99.90
3954;DHT22;1991;48.682;9.030;2022-09-09T01:52:58;15.30;99.90
3954;DHT22;1991;48.682;9.030;2022-09-09T01:55:42;15.30;99.90
3954;DHT22;1991;48.682;9.030;2022-09-09T02:04:11;15.20;99.90
3954;DHT22;1991;48.682;9.030;2022-09-09T02:06:40;15.20;99.90
3954;DHT22;1991;48.682;9.030;2022-09-09T02:09:07;15.20;99.90
3954;DHT22;1991;48.682;9.030;2022-09-09T02:11:36;15.10;99.90
3954;DHT22;1991;48.682;9.030;2022-09-09T02:14:22;15.10;99.90
3954;DHT22;1991;48.682;9.030;2022-09-09T02:16:58;15.10;99.90
3954;DHT22;1991;48.682;9.030;2022-09-09T02:19:32;15.10;99.90
3954;DHT22;1991;48.682;9.030;2022-09-09T02:21:59;15.00;99.90
3954;DHT22;1991;48.682;9.030;2022-09-09T02:24:27;14.90;99.90
3954;DHT22;1991;48.682;9.030;2022-09-09T02:26:55;14.90;99.90
3954;DHT22;1991;48.682;9.030;2022-09-09T02:29:33;14.90;99.90
3954;DHT22;1991;48.682;9.030;2022-09-09T02:32:02;14.80;99.90
3954;DHT22;1991;48.682;9.030;2022-09-09T02:34:31;14.80;99.90
3954;DHT22;1991;48.682;9.030;2022-09-09T02:36:59;14.70;99.90
3954;DHT22;1991;48.682;9.030;2022-09-09T02:39:26;14.70;99.90
3954;DHT22;1991;48.682;9.030;2022-09-09T02:41:52;14.70;99.90
3954;DHT22;1991;48.682;9.030;2022-09-09T02:44:18;14.70;99.90
3954;DHT22;1991;48.682;9.030;2022-09-09T02:47:00;14.60;99.90
3954;DHT22;1991;48.682;9.030;2022-09-09T02:52:15;14.60;99.90
3954;DHT22;1991;48.682;9.030;2022-09-09T02:54:43;14.50;99.90
3954;DHT22;1991;48.682;9.030;2022-09-09T02:57:17;14.50;99.90
3954;DHT22;1991;48.682;9.030;2022-09-09T02:59:45;14.50;99.90
3954;DHT22;1991;48.682;9.030;2022-09-09T03:02:12;14.50;99.90
3954;DHT22;1991;48.682;9.030;2022-09-09T03:04:39;14.50;99.90
3954;DHT22;1991;48.682;9.030;2022-09-09T03:07:05;14.50;99.90
3954;DHT22;1991;48.682;9.030;2022-09-09T03:09:31;14.50;99.90
3954;DHT22;1991;48.682;9.030;2022-09-09T03:11:58;14.50;99.90
3954;DHT22;1991;48.682;9.030;2022-09-09T03:14:23;14.50;99.90
3954;DHT22;1991;48.682;9.030;2022-09-09T03:16:53;14.40;99.90
3954;DHT22;1991;48.682;9.030;2022-09-09T03:19:19;14.40;99.90
3954;DHT22;1991;48.682;9.030;2022-09-09T03:21:46;14.40;99.90
3954;DHT22;1991;48.682;9.030;2022-09-09T03:24:12;14.40;99.90
3954;DHT22;1991;48.682;9.030;2022-09-09T03:26:38;14.40;99.90
3954;DHT22;1991;48.682;9.030;2022-09-09T03:29:05;14.30;99.90
3954;DHT22;1991;48.682;9.030;2022-09-09T03:31:34;14.30;99.90
3954;DHT22;1991;48.682;9.030;2022-09-09T03:34:01;14.40;99.90
3954;DHT22;1991;48.682;9.030;2022-09-09T03:36:27;14.40;99.90
3954;DHT22;1991;48.682;9.030;2022-09-09T03:38:54;14.30;99.90
3954;DHT22;1991;48.682;9.030;2022-09-09T03:41:21;14.30;99.90
3954;DHT22;1991;48.682;9.030;2022-09-09T03:43:49;14.30;99.90
3954;DHT22;1991;48.682;9.030;2022-09-09T03:46:15;14.30;99.90
3954;DHT22;1991;48.682;9.030;2022-09-09T03:48:41;14.30;99.90
3954;DHT22;1991;48.682;9.030;2022-09-09T03:51:06;14.30;99.90
3954;DHT22;1991;48.682;9.030;2022-09-09T03:53:32;14.30;99.90
3954;DHT22;1991;48.682;9.030;2022-09-09T03:55:58;14.30;99.90
3954;DHT22;1991;48.682;9.030;2022-09-09T03:58:25;14.30;99.90
3954;DHT22;1991;48.682;9.030;2022-09-09T04:01:03;14.20;99.90
3954;DHT22;1991;48.682;9.030;2022-09-09T04:03:30;14.20;99.90
3954;DHT22;1991;48.682;9.030;2022-09-09T04:05:58;14.20;99.90
3954;DHT22;1991;48.682;9.030;2022-09-09T04:08:24;14.20;99.90
3954;DHT22;1991;48.682;9.030;2022-09-09T04:10:53;14.20;99.90
3954;DHT22;1991;48.682;9.030;2022-09-09T04:13:19;14.20;99.90
3954;DHT22;1991;48.682;9.030;2022-09-09T04:15:56;14.30;99.90
3954;DHT22;1991;48.682;9.030;2022-09-09T04:18:22;14.30;99.90
3954;DHT22;1991;48.682;9.030;2022-09-09T04:20:50;14.40;99.90
3954;DHT22;1991;48.682;9.030;2022-09-09T04:23:16;14.40;99.90
3954;DHT22;1991;48.682;9.030;2022-09-09T04:25:45;14.50;99.90
3954;DHT22;1991;48.682;9.030;2022-09-09T04:28:13;14.60;99.90
3954;DHT22;1991;48.682;9.030;2022-09-09T04:30:38;14.70;99.90
3954;DHT22;1991;48.682;9.030;2022-09-09T04:33:05;14.70;99.90
3954;DHT22;1991;48.682;9.030;2022-09-09T04:35:31;14.70;99.90
3954;DHT22;1991;48.682;9.030;2022-09-09T04:37:57;14.70;99.90
3954;DHT22;1991;48.682;9.030;2022-09-09T04:40:23;14.70;99.90
3954;DHT22;1991;48.682;9.030;2022-09-09T04:42:48;14.70;99.90
3954;DHT22;1991;48.682;9.030;2022-09-09T04:45:15;14.70;99.90
3954;DHT22;1991;48.682;9.030;2022-09-09T04:47:40;14.70;99.90
3954;DHT22;1991;48.682;9.030;2022-09-09T04:50:07;14.70;99.90
3954;DHT22;1991;48.682;9.030;2022-09-09T04:52:34;14.70;99.90
3954;DHT22;1991;48.682;9.030;2022-09-09T04:55:01;14.70;99.90
3954;DHT22;1991;48.682;9.030;2022-09-09T04:57:26;14.70;99.90
3954;DHT22;1991;48.682;9.030;2022-09-09T04:59:52;14.70;99.90
3954;DHT22;1991;48.682;9.030;2022-09-09T05:02:17;14.60;99.90
3954;DHT22;1991;48.682;9.030;2022-09-09T05:04:43;14.70;99.90
3954;DHT22;1991;48.682;9.030;2022-09-09T05:07:08;14.70;99.90
3954;DHT22;1991;48.682;9.030;2022-09-09T05:09:34;14.70;99.90
3954;DHT22;1991;48.682;9.030;2022-09-09T05:12:00;14.60;99.90
3954;DHT22;1991;48.682;9.030;2022-09-09T05:14:26;14.70;99.90
3954;DHT22;1991;48.682;9.030;2022-09-09T05:16:52;14.70;99.90
3954;DHT22;1991;48.682;9.030;2022-09-09T05:19:18;14.80;99.90
3954;DHT22;1991;48.682;9.030;2022-09-09T05:21:45;14.80;99.90
3954;DHT22;1991;48.682;9.030;2022-09-09T05:24:11;14.80;99.90
3954;DHT22;1991;48.682;9.030;2022-09-09T05:26:36;14.90;99.90
3954;DHT22;1991;48.682;9.030;2022-09-09T05:29:02;14.90;99.90
3954;DHT22;1991;48.682;9.030;2022-09-09T05:31:29;15.00;99.90
3954;DHT22;1991;48.682;9.030;2022-09-09T05:33:55;15.00;99.90
3954;DHT22;1991;48.682;9.030;2022-09-09T05:36:22;15.10;99.90
3954;DHT22;1991;48.682;9.030;2022-09-09T05:38:48;15.30;99.90
3954;DHT22;1991;48.682;9.030;2022-09-09T05:41:15;15.30;99.90
3954;DHT22;1991;48.682;9.030;2022-09-09T05:43:42;15.40;99.90
3954;DHT22;1991;48.682;9.030;2022-09-09T05:46:19;15.50;99.90
3954;DHT22;1991;48.682;9.030;2022-09-09T05:48:46;15.50;99.90
3954;DHT22;1991;48.682;9.030;2022-09-09T05:51:15;15.50;99.90
3954;DHT22;1991;48.682;9.030;2022-09-09T05:53:42;15.60;99.90
3954;DHT22;1991;48.682;9.030;2022-09-09T05:56:10;15.60;99.90
3954;DHT22;1991;48.682;9.030;2022-09-09T05:58:36;15.60;99.90
3954;DHT22;1991;48.682;9.030;2022-09-09T06:01:07;15.70;99.90
3954;DHT22;1991;48.682;9.030;2022-09-09T06:03:37;15.80;99.90
3954;DHT22;1991;48.682;9.030;2022-09-09T06:06:05;15.80;99.90
3954;DHT22;1991;48.682;9.030;2022-09-09T06:08:35;15.90;99.90
3954;DHT22;1991;48.682;9.030;2022-09-09T06:11:06;16.00;99.90
3954;DHT22;1991;48.682;9.030;2022-09-09T06:13:32;16.00;99.90
3954;DHT22;1991;48.682;9.030;2022-09-09T06:15:58;16.10;99.90
3954;DHT22;1991;48.682;9.030;2022-09-09T06:18:25;16.10;99.90
3954;DHT22;1991;48.682;9.030;2022-09-09T06:20:58;16.10;99.90
3954;DHT22;1991;48.682;9.030;2022-09-09T06:23:24;16.00;99.90
3954;DHT22;1991;48.682;9.030;2022-09-09T06:25:51;16.10;99.90
3954;DHT22;1991;48.682;9.030;2022-09-09T06:28:18;16.10;99.90
3954;DHT22;1991;48.682;9.030;2022-09-09T06:30:44;16.10;99.90
3954;DHT22;1991;48.682;9.030;2022-09-09T06:33:10;16.10;99.90
3954;DHT22;1991;48.682;9.030;2022-09-09T06:35:36;16.10;99.90
3954;DHT22;1991;48.682;9.030;2022-09-09T06:38:01;16.20;99.90
3954;DHT22;1991;48.682;9.030;2022-09-09T06:40:27;16.30;99.90
3954;DHT22;1991;48.682;9.030;2022-09-09T06:42:52;16.40;99.90
3954;DHT22;1991;48.682;9.030;2022-09-09T06:45:18;16.40;99.90
3954;DHT22;1991;48.682;9.030;2022-09-09T06:47:44;16.50;99.90
3954;DHT22;1991;48.682;9.030;2022-09-09T06:50:10;16.60;99.90
3954;DHT22;1991;48.682;9.030;2022-09-09T06:52:37;16.60;99.90
3954;DHT22;1991;48.682;9.030;2022-09-09T06:55:03;16.80;99.90
3954;DHT22;1991;48.682;9.030;2022-09-09T06:57:29;16.90;99.90
3954;DHT22;1991;48.682;9.030;2022-09-09T06:59:54;16.90;99.90
3954;DHT22;1991;48.682;9.030;2022-09-09T07:02:20;17.00;99.90
3954;DHT22;1991;48.682;9.030;2022-09-09T07:04:46;17.10;99.90
3954;DHT22;1991;48.682;9.030;2022-09-09T07:07:12;17.20;99.90
3954;DHT22;1991;48.682;9.030;2022-09-09T07:09:39;17.20;99.90
3954;DHT22;1991;48.682;9.030;2022-09-09T07:12:05;17.30;99.90
3954;DHT22;1991;48.682;9.030;2022-09-09T07:14:31;17.50;99.90
3954;DHT22;1991;48.682;9.030;2022-09-09T07:16:58;17.60;99.90
3954;DHT22;1991;48.682;9.030;2022-09-09T07:19:23;17.60;99.90
3954;DHT22;1991;48.682;9.030;2022-09-09T07:21:49;17.70;99.90
3954;DHT22;1991;48.682;9.030;2022-09-09T07:24:15;17.80;99.90
3954;DHT22;1991;48.682;9.030;2022-09-09T07:26:41;17.80;99.90
3954;DHT22;1991;48.682;9.030;2022-09-09T07:29:07;18.20;99.90
3954;DHT22;1991;48.682;9.030;2022-09-09T07:31:36;18.80;99.90
3954;DHT22;1991;48.682;9.030;2022-09-09T07:34:02;19.60;99.90
3954;DHT22;1991;48.682;9.030;2022-09-09T07:36:31;19.70;99.90
3954;DHT22;1991;48.682;9.030;2022-09-09T07:39:00;19.60;99.90
3954;DHT22;1991;48.682;9.030;2022-09-09T07:41:33;19.60;99.90
3954;DHT22;1991;48.682;9.030;2022-09-09T07:44:03;19.60;99.90
3954;DHT22;1991;48.682;9.030;2022-09-09T07:46:29;19.80;99.90
3954;DHT22;1991;48.682;9.030;2022-09-09T07:48:56;20.20;99.50
3954;DHT22;1991;48.682;9.030;2022-09-09T07:51:30;20.50;98.40
3954;DHT22;1991;48.682;9.030;2022-09-09T07:53:58;20.70;97.90
3954;DHT22;1991;48.682;9.030;2022-09-09T07:56:26;20.40;97.60
3954;DHT22;1991;48.682;9.030;2022-09-09T07:58:53;20.40;98.50
3954;DHT22;1991;48.682;9.030;2022-09-09T08:01:22;20.60;98.20
3954;DHT22;1991;48.682;9.030;2022-09-09T08:04:03;20.70;97.80
3954;DHT22;1991;48.682;9.030;2022-09-09T08:06:31;21.00;96.80
3954;DHT22;1991;48.682;9.030;2022-09-09T08:08:58;21.10;96.90
3954;DHT22;1991;48.682;9.030;2022-09-09T08:11:26;21.20;96.50
3954;DHT22;1991;48.682;9.030;2022-09-09T08:13:52;21.10;96.10
3954;DHT22;1991;48.682;9.030;2022-09-09T08:16:21;21.40;96.00
3954;DHT22;1991;48.682;9.030;2022-09-09T08:18:51;21.60;95.40
3954;DHT22;1991;48.682;9.030;2022-09-09T08:21:19;22.00;94.70
3954;DHT22;1991;48.682;9.030;2022-09-09T08:23:46;22.20;93.20
3954;DHT22;1991;48.682;9.030;2022-09-09T08:28:40;22.40;92.20
3954;DHT22;1991;48.682;9.030;2022-09-09T08:31:14;22.30;92.20
3954;DHT22;1991;48.682;9.030;2022-09-09T08:33:42;22.30;92.60
3954;DHT22;1991;48.682;9.030;2022-09-09T08:36:10;22.10;92.70
3954;DHT22;1991;48.682;9.030;2022-09-09T08:38:37;22.30;93.00
3954;DHT22;1991;48.682;9.030;2022-09-09T08:43:48;22.70;91.30
3954;DHT22;1991;48.682;9.030;2022-09-09T08:52:29;23.10;89.90
3954;DHT22;1991;48.682;9.030;2022-09-09T08:56:01;22.80;90.00
3954;DHT22;1991;48.682;9.030;2022-09-09T08:58:10;22.30;90.70
3954;DHT22;1991;48.682;9.030;2022-09-09T09:00:44;22.00;92.10
3954;DHT22;1991;48.682;9.030;2022-09-09T09:03:58;22.30;94.30
3954;DHT22;1991;48.682;9.030;2022-09-09T09:08:57;20.90;97.50
3954;DHT22;1991;48.682;9.030;2022-09-09T09:11:25;20.10;97.70
3954;DHT22;1991;48.682;9.030;2022-09-09T09:19:13;18.50;99.90
3954;DHT22;1991;48.682;9.030;2022-09-09T09:21:42;18.20;99.90
3954;DHT22;1991;48.682;9.030;2022-09-09T09:24:20;18.00;99.90
3954;DHT22;1991;48.682;9.030;2022-09-09T09:26:47;19.00;99.90
3954;DHT22;1991;48.682;9.030;2022-09-09T09:29:16;20.20;99.90
3954;DHT22;1991;48.682;9.030;2022-09-09T09:31:45;21.10;98.80
3954;DHT22;1991;48.682;9.030;2022-09-09T09:34:13;21.00;98.30
3954;DHT22;1991;48.682;9.030;2022-09-09T09:36:44;20.90;99.00
3954;DHT22;1991;48.682;9.030;2022-09-09T09:39:26;21.00;99.00
3954;DHT22;1991;48.682;9.030;2022-09-09T09:41:53;22.10;99.90
3954;DHT22;1991;48.682;9.030;2022-09-09T09:44:28;23.20;97.90
3954;DHT22;1991;48.682;9.030;2022-09-09T09:47:15;24.40;94.10
3954;DHT22;1991;48.682;9.030;2022-09-09T09:52:23;26.50;90.00
3954;DHT22;1991;48.682;9.030;2022-09-09T09:54:49;28.60;84.00
3954;DHT22;1991;48.682;9.030;2022-09-09T09:57:17;33.80;74.90
3954;DHT22;1991;48.682;9.030;2022-09-09T09:59:43;37.70;56.60
3954;DHT22;1991;48.682;9.030;2022-09-09T10:04:46;43.00;43.60
3954;DHT22;1991;48.682;9.030;2022-09-09T10:07:22;44.40;40.20
3954;DHT22;1991;48.682;9.030;2022-09-09T10:09:56;43.20;37.40
3954;DHT22;1991;48.682;9.030;2022-09-09T10:12:37;37.90;40.70
3954;DHT22;1991;48.682;9.030;2022-09-09T10:15:33;34.50;44.40
3954;DHT22;1991;48.682;9.030;2022-09-09T10:18:18;30.90;48.50
3954;DHT22;1991;48.682;9.030;2022-09-09T10:21:20;28.40;52.40
3954;DHT22;1991;48.682;9.030;2022-09-09T10:24:19;32.30;50.00
3954;DHT22;1991;48.682;9.030;2022-09-09T10:42:45;25.20;64.50
3954;DHT22;1991;48.682;9.030;2022-09-09T10:45:23;25.60;61.60
3954;DHT22;1991;48.682;9.030;2022-09-09T10:51:22;24.70;63.40
3954;DHT22;1991;48.682;9.030;2022-09-09T10:54:12;24.00;63.80
3954;DHT22;1991;48.682;9.030;2022-09-09T10:56:44;24.60;63.70
3954;DHT22;1991;48.682;9.030;2022-09-09T10:59:20;25.60;63.90
3954;DHT22;1991;48.682;9.030;2022-09-09T11:01:57;25.30;62.40
3954;DHT22;1991;48.682;9.030;2022-09-09T11:04:33;24.80;61.20
3954;DHT22;1991;48.682;9.030;2022-09-09T11:07:05;24.40;61.00
3954;DHT22;1991;48.682;9.030;2022-09-09T11:09:41;23.50;59.40
3954;DHT22;1991;48.682;9.030;2022-09-09T11:12:15;22.70;60.70
3954;DHT22;1991;48.682;9.030;2022-09-09T11:15:35;21.90;61.50
3954;DHT22;1991;48.682;9.030;2022-09-09T11:17:44;21.30;65.00
3954;DHT22;1991;48.682;9.030;2022-09-09T11:20:13;21.00;66.10
3954;DHT22;1991;48.682;9.030;2022-09-09T11:23:07;20.70;68.30
3954;DHT22;1991;48.682;9.030;2022-09-09T11:25:42;20.50;68.90
3954;DHT22;1991;48.682;9.030;2022-09-09T11:40:31;19.80;70.30
3954;DHT22;1991;48.682;9.030;2022-09-09T11:43:07;19.70;72.40
3954;DHT22;1991;48.682;9.030;2022-09-09T11:45:35;19.60;72.30
3954;DHT22;1991;48.682;9.030;2022-09-09T11:48:03;19.40;72.50
3954;DHT22;1991;48.682;9.030;2022-09-09T11:50:34;19.40;74.00
3954;DHT22;1991;48.682;9.030;2022-09-09T11:53:26;19.50;73.00
3954;DHT22;1991;48.682;9.030;2022-09-09T11:56:11;19.70;73.90
3954;DHT22;1991;48.682;9.030;2022-09-09T11:58:41;20.10;73.70
3954;DHT22;1991;48.682;9.030;2022-09-09T12:07:00;20.60;69.60
3954;DHT22;1991;48.682;9.030;2022-09-09T12:09:39;20.90;70.10
3954;DHT22;1991;48.682;9.030;2022-09-09T12:17:26;22.40;65.30
3954;DHT22;1991;48.682;9.030;2022-09-09T12:20:15;22.30;62.60
3954;DHT22;1991;48.682;9.030;2022-09-09T12:28:18;23.40;61.30
3954;DHT22;1991;48.682;9.030;2022-09-09T12:33:17;23.20;63.30
3954;DHT22;1991;48.682;9.030;2022-09-09T12:35:47;22.70;63.30
3954;DHT22;1991;48.682;9.030;2022-09-09T12:38:41;22.10;65.90
3954;DHT22;1991;48.682;9.030;2022-09-09T12:41:06;21.50;67.50
3954;DHT22;1991;48.682;9.030;2022-09-09T12:43:44;21.30;68.60
3954;DHT22;1991;48.682;9.030;2022-09-09T12:46:20;20.80;71.00
3954;DHT22;1991;48.682;9.030;2022-09-09T12:48:47;20.80;72.00
3954;DHT22;1991;48.682;9.030;2022-09-09T12:51:21;21.00;72.00
3954;DHT22;1991;48.682;9.030;2022-09-09T12:53:50;20.80;71.90
3954;DHT22;1991;48.682;9.030;2022-09-09T12:56:22;20.70;69.50
3954;DHT22;1991;48.682;9.030;2022-09-09T12:58:50;20.80;70.10
3954;DHT22;1991;48.682;9.030;2022-09-09T13:03:50;21.00;68.80
3954;DHT22;1991;48.682;9.030;2022-09-09T13:06:28;21.40;68.60
3954;DHT22;1991;48.682;9.030;2022-09-09T13:08:56;22.20;66.10
3954;DHT22;1991;48.682;9.030;2022-09-09T13:11:26;22.90;63.40
3954;DHT22;1991;48.682;9.030;2022-09-09T13:13:56;23.20;62.90
3954;DHT22;1991;48.682;9.030;2022-09-09T13:16:29;22.60;61.50
3954;DHT22;1991;48.682;9.030;2022-09-09T13:19:09;22.60;62.00
3954;DHT22;1991;48.682;9.030;2022-09-09T13:21:57;22.70;61.00
3954;DHT22;1991;48.682;9.030;2022-09-09T13:24:32;22.90;61.40
3954;DHT22;1991;48.682;9.030;2022-09-09T13:27:00;23.10;61.40
3954;DHT22;1991;48.682;9.030;2022-09-09T13:29:31;22.90;60.90
3954;DHT22;1991;48.682;9.030;2022-09-09T13:32:05;22.30;61.80
3954;DHT22;1991;48.682;9.030;2022-09-09T13:34:33;21.90;63.40
3954;DHT22;1991;48.682;9.030;2022-09-09T13:37:06;22.10;63.20
3954;DHT22;1991;48.682;9.030;2022-09-09T13:39:36;22.90;63.40
3954;DHT22;1991;48.682;9.030;2022-09-09T13:42:03;22.80;62.30
3954;DHT22;1991;48.682;9.030;2022-09-09T13:44:34;22.80;62.10
3954;DHT22;1991;48.682;9.030;2022-09-09T13:47:06;22.90;59.10
3954;DHT22;1991;48.682;9.030;2022-09-09T13:49:42;22.60;59.90
3954;DHT22;1991;48.682;9.030;2022-09-09T13:52:13;22.70;59.40
3954;DHT22;1991;48.682;9.030;2022-09-09T13:54:40;22.70;58.60
3954;DHT22;1991;48.682;9.030;2022-09-09T13:57:23;22.30;59.10
3954;DHT22;1991;48.682;9.030;2022-09-09T13:59:51;22.20;59.30
3954;DHT22;1991;48.682;9.030;2022-09-09T14:02:17;22.20;59.90
3954;DHT22;1991;48.682;9.030;2022-09-09T14:04:43;22.20;59.70
3954;DHT22;1991;48.682;9.030;2022-09-09T14:07:12;22.40;59.10
3954;DHT22;1991;48.682;9.030;2022-09-09T14:09:39;22.40;58.90
3954;DHT22;1991;48.682;9.030;2022-09-09T14:12:08;22.70;58.70
3954;DHT22;1991;48.682;9.030;2022-09-09T14:14:34;22.80;58.30
3954;DHT22;1991;48.682;9.030;2022-09-09T14:17:00;23.20;58.30
3954;DHT22;1991;48.682;9.030;2022-09-09T14:19:25;23.20;55.60
3954;DHT22;1991;48.682;9.030;2022-09-09T14:22:13;22.80;56.20
3954;DHT22;1991;48.682;9.030;2022-09-09T14:24:39;22.70;56.30
3954;DHT22;1991;48.682;9.030;2022-09-09T14:27:04;22.50;57.50
3954;DHT22;1991;48.682;9.030;2022-09-09T14:29:30;22.40;56.60
3954;DHT22;1991;48.682;9.030;2022-09-09T14:31:56;21.80;56.60
3954;DHT22;1991;48.682;9.030;2022-09-09T14:34:22;21.50;57.40
3954;DHT22;1991;48.682;9.030;2022-09-09T14:36:47;21.50;57.60
3954;DHT22;1991;48.682;9.030;2022-09-09T14:39:13;21.50;58.30
3954;DHT22;1991;48.682;9.030;2022-09-09T14:41:39;21.60;57.50
3954;DHT22;1991;48.682;9.030;2022-09-09T14:44:04;21.60;57.60
3954;DHT22;1991;48.682;9.030;2022-09-09T14:46:30;21.60;57.90
3954;DHT22;1991;48.682;9.030;2022-09-09T14:48:57;21.70;58.10
3954;DHT22;1991;48.682;9.030;2022-09-09T14:51:25;21.80;58.00
3954;DHT22;1991;48.682;9.030;2022-09-09T14:53:57;21.80;57.90
3954;DHT22;1991;48.682;9.030;2022-09-09T14:56:25;21.70;58.00
3954;DHT22;1991;48.682;9.030;2022-09-09T14:58:55;21.70;57.90
3954;DHT22;1991;48.682;9.030;2022-09-09T15:01:22;21.40;58.60
3954;DHT22;1991;48.682;9.030;2022-09-09T15:04:06;21.10;59.40
3954;DHT22;1991;48.682;9.030;2022-09-09T15:06:34;21.10;59.80
3954;DHT22;1991;48.682;9.030;2022-09-09T15:09:02;21.30;60.10
3954;DHT22;1991;48.682;9.030;2022-09-09T15:11:30;21.60;60.50
3954;DHT22;1991;48.682;9.030;2022-09-09T15:13:57;21.60;59.80
3954;DHT22;1991;48.682;9.030;2022-09-09T15:16:26;21.80;60.00
3954;DHT22;1991;48.682;9.030;2022-09-09T15:18:54;21.80;60.00
3954;DHT22;1991;48.682;9.030;2022-09-09T15:21:24;21.90;60.10
3954;DHT22;1991;48.682;9.030;2022-09-09T15:23:49;22.00;60.60
3954;DHT22;1991;48.682;9.030;2022-09-09T15:26:16;22.10;60.00
3954;DHT22;1991;48.682;9.030;2022-09-09T15:28:44;22.00;59.50
3954;DHT22;1991;48.682;9.030;2022-09-09T15:31:15;22.20;59.90
3954;DHT22;1991;48.682;9.030;2022-09-09T15:33:52;22.10;56.90
3954;DHT22;1991;48.682;9.030;2022-09-09T15:36:22;21.70;57.20
3954;DHT22;1991;48.682;9.030;2022-09-09T15:38:49;21.30;57.50
3954;DHT22;1991;48.682;9.030;2022-09-09T15:41:16;21.00;58.60
3954;DHT22;1991;48.682;9.030;2022-09-09T15:43:46;20.80;59.80
3954;DHT22;1991;48.682;9.030;2022-09-09T15:46:33;20.50;60.10
3954;DHT22;1991;48.682;9.030;2022-09-09T15:49:15;20.40;61.60
3954;DHT22;1991;48.682;9.030;2022-09-09T15:51:44;20.30;61.70
3954;DHT22;1991;48.682;9.030;2022-09-09T15:54:15;20.30;61.90
3954;DHT22;1991;48.682;9.030;2022-09-09T15:56:46;20.30;62.20
3954;DHT22;1991;48.682;9.030;2022-09-09T15:59:14;20.30;62.90
3954;DHT22;1991;48.682;9.030;2022-09-09T16:01:40;20.30;62.90
3954;DHT22;1991;48.682;9.030;2022-09-09T16:04:07;20.30;63.30
3954;DHT22;1991;48.682;9.030;2022-09-09T16:06:33;20.20;62.20
3954;DHT22;1991;48.682;9.030;2022-09-09T16:09:01;20.00;62.20
3954;DHT22;1991;48.682;9.030;2022-09-09T16:11:30;19.90;63.10
3954;DHT22;1991;48.682;9.030;2022-09-09T16:13:56;19.90;63.60
3954;DHT22;1991;48.682;9.030;2022-09-09T16:16:26;19.80;63.30
3954;DHT22;1991;48.682;9.030;2022-09-09T16:18:57;19.80;64.30
3954;DHT22;1991;48.682;9.030;2022-09-09T16:21:26;19.70;64.30
3954;DHT22;1991;48.682;9.030;2022-09-09T16:23:54;19.70;64.60
3954;DHT22;1991;48.682;9.030;2022-09-09T16:26:20;19.70;64.80
3954;DHT22;1991;48.682;9.030;2022-09-09T16:28:46;19.70;65.10
3954;DHT22;1991;48.682;9.030;2022-09-09T16:31:19;19.60;65.50
3954;DHT22;1991;48.682;9.030;2022-09-09T16:33:45;19.60;66.90
3954;DHT22;1991;48.682;9.030;2022-09-09T16:36:19;19.60;67.30
3954;DHT22;1991;48.682;9.030;2022-09-09T16:38:45;19.50;67.70
3954;DHT22;1991;48.682;9.030;2022-09-09T16:41:13;19.50;69.50
3954;DHT22;1991;48.682;9.030;2022-09-09T16:43:39;19.50;69.10
3954;DHT22;1991;48.682;9.030;2022-09-09T16:46:17;19.50;69.60
3954;DHT22;1991;48.682;9.030;2022-09-09T16:48:44;19.50;69.20
3954;DHT22;1991;48.682;9.030;2022-09-09T16:53:41;19.50;68.40
3954;DHT22;1991;48.682;9.030;2022-09-09T16:56:29;19.50;67.30
3954;DHT22;1991;48.682;9.030;2022-09-09T16:58:57;19.40;67.40
3954;DHT22;1991;48.682;9.030;2022-09-09T17:01:29;19.30;68.50
3954;DHT22;1991;48.682;9.030;2022-09-09T17:03:56;19.20;69.50
3954;DHT22;1991;48.682;9.030;2022-09-09T17:06:22;19.00;68.90
3954;DHT22;1991;48.682;9.030;2022-09-09T17:09:00;19.00;69.10
3954;DHT22;1991;48.682;9.030;2022-09-09T17:11:27;18.90;69.70
3954;DHT22;1991;48.682;9.030;2022-09-09T17:13:54;18.90;71.10
3954;DHT22;1991;48.682;9.030;2022-09-09T17:16:22;18.90;70.90
3954;DHT22;1991;48.682;9.030;2022-09-09T17:18:51;18.80;71.10
3954;DHT22;1991;48.682;9.030;2022-09-09T17:21:19;18.70;71.30
3954;DHT22;1991;48.682;9.030;2022-09-09T17:23:46;18.70;71.80
3954;DHT22;1991;48.682;9.030;2022-09-09T17:26:13;18.60;72.30
3954;DHT22;1991;48.682;9.030;2022-09-09T17:28:41;18.50;72.90
3954;DHT22;1991;48.682;9.030;2022-09-09T17:31:10;18.40;74.00
3954;DHT22;1991;48.682;9.030;2022-09-09T17:33:43;18.40;74.10
3954;DHT22;1991;48.682;9.030;2022-09-09T17:36:12;18.30;74.70
3954;DHT22;1991;48.682;9.030;2022-09-09T17:38:39;18.20;74.80
3954;DHT22;1991;48.682;9.030;2022-09-09T17:41:07;18.10;75.50
3954;DHT22;1991;48.682;9.030;2022-09-09T17:43:33;18.10;76.40
3954;DHT22;1991;48.682;9.030;2022-09-09T17:48:31;18.00;76.70
3954;DHT22;1991;48.682;9.030;2022-09-09T17:50:58;17.90;77.70
3954;DHT22;1991;48.682;9.030;2022-09-09T17:53:24;17.90;77.80
3954;DHT22;1991;48.682;9.030;2022-09-09T17:55:50;17.80;78.00
3954;DHT22;1991;48.682;9.030;2022-09-09T17:58:16;17.80;78.20
3954;DHT22;1991;48.682;9.030;2022-09-09T18:00:41;17.70;79.00
3954;DHT22;1991;48.682;9.030;2022-09-09T18:03:07;17.70;79.10
3954;DHT22;1991;48.682;9.030;2022-09-09T18:05:35;17.60;79.00
3954;DHT22;1991;48.682;9.030;2022-09-09T18:08:00;17.60;79.70
3954;DHT22;1991;48.682;9.030;2022-09-09T18:10:26;17.50;80.20
3954;DHT22;1991;48.682;9.030;2022-09-09T18:12:52;17.50;80.50
3954;DHT22;1991;48.682;9.030;2022-09-09T18:15:17;17.50;81.10
3954;DHT22;1991;48.682;9.030;2022-09-09T18:17:43;17.40;81.70
3954;DHT22;1991;48.682;9.030;2022-09-09T18:20:09;17.20;82.60
3954;DHT22;1991;48.682;9.030;2022-09-09T18:22:35;17.20;83.30
3954;DHT22;1991;48.682;9.030;2022-09-09T18:25:01;17.20;83.80
3954;DHT22;1991;48.682;9.030;2022-09-09T18:27:26;17.10;84.40
3954;DHT22;1991;48.682;9.030;2022-09-09T18:29:53;17.10;85.20
3954;DHT22;1991;48.682;9.030;2022-09-09T18:35:43;17.10;86.20
3954;DHT22;1991;48.682;9.030;2022-09-09T18:38:11;17.10;87.20
3954;DHT22;1991;48.682;9.030;2022-09-09T18:40:36;17.10;88.10